Aviation Digital Data Service (ADDS)

Output produced by METARs form (1209 UTC 18 June 2019)
found at http://www.aviationweather.gov/metar/data/
 
Forecast for: ESSB (STOCKHOLM/BROMMA, SE)
Text: TAF ESSB 181130Z 1812/1820 26012G22KT CAVOK
Forecast period: 1200 to 1400 UTC 18 June 2019
Forecast type: FROM: standard forecast or significant change
Winds: from the W (260 degrees) at 14 MPH (12 knots; 6.2 m/s)
gusting to 25 MPH (22 knots; 11.3 m/s)
Visibility: 6 or more miles 10+ km)
Ceiling: unknown
Clouds: missing
Weather: NSW  (no significant weather)
Text: PROB40 1812/1820 SHRA BKN040CB
Forecast period: 1200 to 2000 UTC 18 June 2019
Forecast type: PROBABLE: 40 percent likelihood of the following during this time
Visibility: missing
Ceiling: 4000 feet AGL
Clouds: broken clouds at 4000 feet AGL
Weather: SHRA  (rain showers)
Text: BECMG 1814/1816 19010G20KT
Forecast period: 1400 to 2000 UTC 18 June 2019
Forecast type: BECOMING: Conditions expected to become as follows by 1600 UTC 18 June 2019
Winds: from the S (190 degrees) at 12 MPH (10 knots; 5.1 m/s)
gusting to 23 MPH (20 knots; 10.3 m/s)
Visibility: 6 or more miles 10+ km)
Ceiling: unknown
Clouds: missing
Weather: NSW  (no significant weather)